createdAt,value
2022-09-03T00:00:00.186Z,100314.00
2022-09-03T00:02:36.644Z,100326.59
2022-09-03T00:05:15.873Z,100314.00
2022-09-03T00:07:53.245Z,100324.78
2022-09-03T00:10:35.464Z,100334.44
2022-09-03T00:13:05.656Z,100342.63
2022-09-03T00:15:36.099Z,100335.97
2022-09-03T00:18:11.171Z,100346.06
2022-09-03T00:20:43.370Z,100348.81
2022-09-03T00:23:21.815Z,100353.13
2022-09-03T00:26:07.275Z,100354.38
2022-09-03T00:28:41.891Z,100360.72
2022-09-03T00:31:12.686Z,100363.22
2022-09-03T00:33:41.474Z,100364.88
2022-09-03T00:36:23.671Z,100371.81
2022-09-03T00:38:51.654Z,100371.84
2022-09-03T00:41:18.718Z,100376.53
2022-09-03T00:44:25.027Z,100390.00
2022-09-03T00:47:02.404Z,100380.97
2022-09-03T00:49:51.077Z,100383.19
2022-09-03T00:52:55.446Z,100387.00
2022-09-03T00:55:32.352Z,100387.75
2022-09-03T00:58:16.707Z,100378.06
2022-09-03T01:00:45.680Z,100386.09
2022-09-03T01:03:24.182Z,100392.03
2022-09-03T01:06:20.211Z,100402.84
2022-09-03T01:08:57.734Z,100394.13
2022-09-03T01:11:59.534Z,100397.97
2022-09-03T01:14:51.401Z,100393.78
2022-09-03T01:17:35.801Z,100402.91
2022-09-03T01:20:27.358Z,100389.47
2022-09-03T01:23:14.449Z,100395.13
2022-09-03T01:25:54.805Z,100399.34
2022-09-03T01:28:32.957Z,100402.38
2022-09-03T01:31:12.133Z,100405.69
2022-09-03T01:33:56.303Z,100380.91
2022-09-03T01:36:44.672Z,100409.22
2022-09-03T01:39:27.112Z,100411.13
2022-09-03T01:42:15.809Z,100411.41
2022-09-03T01:45:12.932Z,100415.00
2022-09-03T01:48:31.015Z,100418.81
2022-09-03T01:51:12.432Z,100418.66
2022-09-03T01:54:10.939Z,100418.41
2022-09-03T01:57:35.612Z,100416.66
2022-09-03T02:00:15.697Z,100430.88
2022-09-03T02:02:47.885Z,100438.88
2022-09-03T02:05:27.574Z,100440.53
2022-09-03T02:08:03.000Z,100440.53
2022-09-03T02:10:37.922Z,100440.53
2022-09-03T02:13:12.246Z,100446.38
2022-09-03T02:15:43.797Z,100442.81
2022-09-03T02:18:17.252Z,100442.94
2022-09-03T02:20:46.889Z,100452.78
2022-09-03T02:23:15.599Z,100455.88
2022-09-03T02:25:48.163Z,100457.78
2022-09-03T02:28:17.012Z,100463.81
2022-09-03T02:30:45.322Z,100460.78
2022-09-03T02:33:12.853Z,100463.28
2022-09-03T02:35:41.788Z,100468.09
2022-09-03T02:38:17.101Z,100465.00
2022-09-03T02:40:45.788Z,100469.31
2022-09-03T02:43:48.185Z,100473.56
2022-09-03T02:46:22.455Z,100463.41
2022-09-03T02:48:49.741Z,100471.63
2022-09-03T02:51:16.861Z,100479.00
2022-09-03T02:53:44.747Z,100460.78
2022-09-03T02:56:12.246Z,100483.81
2022-09-03T02:58:39.545Z,100473.56
2022-09-03T03:01:06.740Z,100478.56
2022-09-03T03:03:34.219Z,100474.47
2022-09-03T03:06:03.810Z,100477.97
2022-09-03T03:08:33.016Z,100482.53
2022-09-03T03:11:00.845Z,100485.34
2022-09-03T03:13:30.003Z,100494.81
2022-09-03T03:16:02.594Z,100476.63
2022-09-03T03:18:30.415Z,100495.19
2022-09-03T03:20:57.675Z,100493.28
2022-09-03T03:23:24.904Z,100500.19
2022-09-03T03:25:52.061Z,100480.19
2022-09-03T03:28:20.650Z,100505.97
2022-09-03T03:30:49.073Z,100486.22
2022-09-03T03:33:16.383Z,100508.03
2022-09-03T03:35:43.750Z,100503.38
2022-09-03T03:38:10.946Z,100508.41
2022-09-03T03:40:41.088Z,100507.66
2022-09-03T03:43:08.278Z,100486.38
2022-09-03T03:45:35.429Z,100501.44
2022-09-03T03:48:02.748Z,100505.38
2022-09-03T03:50:29.909Z,100518.78
2022-09-03T03:53:01.170Z,100514.31
2022-09-03T03:55:29.005Z,100511.22
2022-09-03T03:58:02.197Z,100515.22
2022-09-03T04:00:29.640Z,100480.19
2022-09-03T04:02:57.669Z,100523.16
2022-09-03T04:05:24.847Z,100504.59
2022-09-03T04:07:52.147Z,100512.41
2022-09-03T04:10:19.234Z,100520.97
2022-09-03T04:12:46.539Z,100518.78
2022-09-03T04:15:13.676Z,100526.84
2022-09-03T04:17:40.817Z,100525.63
2022-09-03T04:20:08.188Z,100503.63
2022-09-03T04:22:35.308Z,100521.41
2022-09-03T04:25:02.447Z,100531.56
2022-09-03T04:27:30.480Z,100534.47
2022-09-03T04:29:57.590Z,100513.88
2022-09-03T04:32:43.376Z,100533.31
2022-09-03T04:35:10.503Z,100530.38
2022-09-03T04:37:37.655Z,100526.78
2022-09-03T04:40:05.326Z,100526.38
2022-09-03T04:42:32.431Z,100537.59
2022-09-03T04:44:59.759Z,100536.78
2022-09-03T04:47:28.233Z,100538.97
2022-09-03T04:49:55.388Z,100538.13
2022-09-03T04:52:22.489Z,100541.59
2022-09-03T04:54:49.823Z,100544.25
2022-09-03T04:57:16.963Z,100533.41
2022-09-03T04:59:44.913Z,100538.53
2022-09-03T05:02:12.293Z,100528.69
2022-09-03T05:04:40.127Z,100542.25
2022-09-03T05:07:07.528Z,100533.47
2022-09-03T05:09:35.043Z,100540.13
2022-09-03T05:12:02.239Z,100545.16
2022-09-03T05:14:29.727Z,100547.38
2022-09-03T05:16:56.858Z,100543.50
2022-09-03T05:19:23.974Z,100539.34
2022-09-03T05:21:51.155Z,100547.09
2022-09-03T05:24:18.727Z,100546.41
2022-09-03T05:26:45.897Z,100536.00
2022-09-03T05:29:13.127Z,100539.34
2022-09-03T05:31:40.428Z,100563.47
2022-09-03T05:34:08.632Z,100556.94
2022-09-03T05:36:38.258Z,100564.59
2022-09-03T05:39:06.190Z,100558.75
2022-09-03T05:41:34.375Z,100555.72
2022-09-03T05:44:02.299Z,100540.59
2022-09-03T05:46:33.656Z,100553.59
2022-09-03T05:49:02.565Z,100559.88
2022-09-03T05:51:30.705Z,100572.63
2022-09-03T05:53:58.655Z,100572.91
2022-09-03T05:56:28.179Z,100581.22
2022-09-03T05:58:58.153Z,100580.78
2022-09-03T06:01:31.304Z,100562.06
2022-09-03T06:04:03.835Z,100563.13
2022-09-03T06:06:33.441Z,100560.66
2022-09-03T06:09:04.722Z,100586.72
2022-09-03T06:11:35.465Z,100582.94
2022-09-03T06:14:05.185Z,100591.06
2022-09-03T06:16:34.885Z,100587.97
2022-09-03T06:19:02.836Z,100566.66
2022-09-03T06:21:30.129Z,100591.84
2022-09-03T06:23:59.751Z,100588.53
2022-09-03T06:26:28.932Z,100588.25
2022-09-03T06:28:57.371Z,100591.69
2022-09-03T06:31:25.687Z,100599.91
2022-09-03T06:33:54.741Z,100587.41
2022-09-03T06:36:24.768Z,100601.81
2022-09-03T06:38:53.766Z,100600.31
2022-09-03T06:41:26.306Z,100602.97
2022-09-03T06:43:59.143Z,100598.72
2022-09-03T06:46:26.376Z,100599.78
2022-09-03T06:48:54.336Z,100602.47
2022-09-03T06:51:24.140Z,100593.22
2022-09-03T06:53:54.674Z,100607.91
2022-09-03T06:56:26.485Z,100601.81
2022-09-03T06:58:57.188Z,100603.56
2022-09-03T07:01:31.624Z,100598.34
2022-09-03T07:04:04.480Z,100593.19
2022-09-03T07:06:37.402Z,100594.97
2022-09-03T07:09:06.274Z,100602.22
2022-09-03T07:11:35.885Z,100604.34
2022-09-03T07:14:06.168Z,100594.53
2022-09-03T07:16:43.922Z,100588.25
2022-09-03T07:19:13.473Z,100603.06
2022-09-03T07:21:46.533Z,100601.78
2022-09-03T07:24:15.503Z,100579.72
2022-09-03T07:26:47.129Z,100591.84
2022-09-03T07:29:16.106Z,100577.69
2022-09-03T07:31:44.301Z,100598.53
2022-09-03T07:34:13.555Z,100605.25
2022-09-03T07:36:48.883Z,100590.41
2022-09-03T07:39:18.335Z,100597.88
2022-09-03T07:41:46.698Z,100576.47
2022-09-03T07:44:16.378Z,100596.84
2022-09-03T07:46:46.233Z,100589.75
2022-09-03T07:49:13.764Z,100587.59
2022-09-03T07:51:40.952Z,100592.28
2022-09-03T07:54:11.611Z,100591.03
2022-09-03T07:56:42.191Z,100593.50
2022-09-03T07:59:09.674Z,100574.53
2022-09-03T08:01:38.362Z,100593.81
2022-09-03T08:04:09.742Z,100590.19
2022-09-03T08:06:38.335Z,100581.38
2022-09-03T08:09:12.019Z,100571.41
2022-09-03T08:11:41.624Z,100592.44
2022-09-03T08:14:11.366Z,100567.78
2022-09-03T08:16:43.984Z,100581.81
2022-09-03T08:19:13.306Z,100577.28
2022-09-03T08:21:44.769Z,100583.63
2022-09-03T08:24:12.491Z,100583.56
2022-09-03T08:26:44.289Z,100589.94
2022-09-03T08:29:15.002Z,100554.88
2022-09-03T08:31:43.178Z,100574.56
2022-09-03T08:34:11.952Z,100569.44
2022-09-03T08:36:41.369Z,100559.84
2022-09-03T08:39:10.867Z,100572.38
2022-09-03T08:41:53.364Z,100581.03
2022-09-03T08:44:31.492Z,100588.84
2022-09-03T08:47:01.471Z,100590.50
2022-09-03T08:49:37.496Z,100585.44
2022-09-03T08:52:09.122Z,100570.06
2022-09-03T08:54:38.214Z,100584.44
2022-09-03T08:57:07.928Z,100592.69
2022-09-03T08:59:35.134Z,100586.69
2022-09-03T09:02:26.751Z,100583.84
2022-09-03T09:05:22.167Z,100580.94
2022-09-03T09:08:28.127Z,100589.88
2022-09-03T09:11:22.777Z,100583.63
2022-09-03T09:14:10.964Z,100569.53
2022-09-03T09:16:48.087Z,100580.00
2022-09-03T09:19:42.187Z,100575.59
2022-09-03T09:22:41.085Z,100577.72
2022-09-03T09:25:15.579Z,100577.06
2022-09-03T09:27:51.922Z,100586.91
2022-09-03T09:30:19.916Z,100549.81
2022-09-03T09:32:47.524Z,100568.13
2022-09-03T09:35:17.652Z,100568.41
2022-09-03T09:37:49.625Z,100546.56
2022-09-03T09:40:45.225Z,100575.09
2022-09-03T09:43:22.305Z,100570.53
2022-09-03T09:45:52.794Z,100565.25
2022-09-03T09:48:31.418Z,100572.09
2022-09-03T09:51:22.554Z,100571.41
2022-09-03T09:54:14.397Z,100561.13
2022-09-03T09:56:44.910Z,100562.06
2022-09-03T09:59:15.501Z,100556.44
2022-09-03T10:01:45.040Z,100575.53
2022-09-03T10:04:21.798Z,100563.00
2022-09-03T10:07:07.818Z,100555.63
2022-09-03T10:09:34.967Z,100557.31
2022-09-03T10:12:28.738Z,100567.59
2022-09-03T10:15:03.910Z,100551.19
2022-09-03T10:17:48.987Z,100556.31
2022-09-03T10:20:44.427Z,100548.34
2022-09-03T10:23:28.880Z,100566.06
2022-09-03T10:26:11.407Z,100539.72
2022-09-03T10:28:43.844Z,100567.56
2022-09-03T10:31:57.070Z,100555.66
2022-09-03T10:34:24.725Z,100559.19
2022-09-03T10:37:23.895Z,100541.47
2022-09-03T10:40:21.663Z,100550.47
2022-09-03T10:43:00.624Z,100552.13
2022-09-03T10:45:37.751Z,100556.63
2022-09-03T10:48:30.233Z,100558.13
2022-09-03T10:51:04.329Z,100541.22
2022-09-03T10:53:53.546Z,100557.75
2022-09-03T10:56:34.053Z,100554.59
2022-09-03T10:59:04.220Z,100562.59
2022-09-03T11:01:46.529Z,100559.44
2022-09-03T11:04:22.788Z,100557.44
2022-09-03T11:06:50.086Z,100554.97
2022-09-03T11:09:56.961Z,100553.63
2022-09-03T11:12:29.727Z,100536.38
2022-09-03T11:15:26.211Z,100554.78
2022-09-03T11:18:03.203Z,100556.44
2022-09-03T11:20:31.338Z,100556.28
2022-09-03T11:23:02.303Z,100537.88
2022-09-03T11:25:36.917Z,100563.41
2022-09-03T11:28:21.257Z,100560.09
2022-09-03T11:31:03.771Z,100552.13
2022-09-03T11:33:36.139Z,100547.16
2022-09-03T11:36:06.723Z,100552.78
2022-09-03T11:38:34.657Z,100539.19
2022-09-03T11:41:24.383Z,100550.47
2022-09-03T11:43:52.053Z,100548.16
2022-09-03T11:46:22.242Z,100546.00
2022-09-03T11:49:02.425Z,100536.50
2022-09-03T11:51:34.225Z,100546.31
2022-09-03T11:54:03.172Z,100537.16
2022-09-03T11:56:32.232Z,100522.94
2022-09-03T11:59:14.902Z,100536.19
2022-09-03T12:02:13.919Z,100531.53
2022-09-03T12:04:57.249Z,100512.81
2022-09-03T12:07:43.131Z,100534.03
2022-09-03T12:10:42.120Z,100530.41
2022-09-03T12:13:18.332Z,100523.25
2022-09-03T12:16:26.989Z,100511.81
2022-09-03T12:18:58.407Z,100514.66
2022-09-03T12:21:25.909Z,100510.00
2022-09-03T12:23:55.552Z,100506.81
2022-09-03T12:26:27.656Z,100508.69
2022-09-03T12:28:59.965Z,100509.66
2022-09-03T12:31:30.079Z,100508.69
2022-09-03T12:33:59.431Z,100497.22
2022-09-03T12:36:37.212Z,100495.75
2022-09-03T12:42:26.090Z,100500.41
2022-09-03T12:44:53.656Z,100482.47
2022-09-03T12:47:39.601Z,100490.78
2022-09-03T12:50:14.154Z,100491.41
2022-09-03T12:52:54.351Z,100488.47
2022-09-03T12:55:30.344Z,100493.94
2022-09-03T12:58:04.165Z,100488.63
2022-09-03T13:00:35.067Z,100481.66
2022-09-03T13:03:11.669Z,100498.75
2022-09-03T13:05:50.695Z,100493.25
2022-09-03T13:08:28.709Z,100487.59
2022-09-03T13:10:59.498Z,100492.44
2022-09-03T13:13:29.599Z,100487.44
2022-09-03T13:16:36.352Z,100487.13
2022-09-03T13:19:27.257Z,100486.44
2022-09-03T13:21:57.810Z,100483.84
2022-09-03T13:24:36.516Z,100470.88
2022-09-03T13:27:18.933Z,100478.47
2022-09-03T13:29:55.487Z,100475.66
2022-09-03T13:32:42.542Z,100467.38
2022-09-03T13:35:28.384Z,100468.19
2022-09-03T13:38:19.675Z,100473.84
2022-09-03T13:40:54.472Z,100472.03
2022-09-03T13:43:42.674Z,100470.50
2022-09-03T13:46:18.094Z,100468.19
2022-09-03T13:49:04.488Z,100467.84
2022-09-03T13:51:50.442Z,100459.16
2022-09-03T13:54:48.256Z,100461.44
2022-09-03T13:57:28.969Z,100461.91
2022-09-03T14:00:10.250Z,100455.22
2022-09-03T14:02:49.612Z,100456.81
2022-09-03T14:05:27.376Z,100452.72
2022-09-03T14:08:20.515Z,100447.19
2022-09-03T14:11:01.013Z,100444.03
2022-09-03T14:13:39.211Z,100433.97
2022-09-03T14:16:25.398Z,100435.63
2022-09-03T14:19:33.931Z,100440.84
2022-09-03T14:22:25.543Z,100429.91
2022-09-03T14:25:09.404Z,100411.69
2022-09-03T14:27:38.774Z,100423.28
2022-09-03T14:30:18.309Z,100422.25
2022-09-03T14:33:04.398Z,100421.88
2022-09-03T14:35:43.613Z,100422.59
2022-09-03T14:38:58.211Z,100429.19
2022-09-03T14:41:46.993Z,100438.56
2022-09-03T14:44:32.991Z,100429.63
2022-09-03T14:47:27.640Z,100420.53
2022-09-03T14:50:19.888Z,100426.72
2022-09-03T14:53:23.492Z,100414.75
2022-09-03T14:56:06.945Z,100420.41
2022-09-03T14:58:49.269Z,100413.78
2022-09-03T15:01:38.691Z,100411.28
2022-09-03T15:04:28.791Z,100411.13
2022-09-03T15:07:31.142Z,100411.63
2022-09-03T15:10:13.944Z,100403.50
2022-09-03T15:12:46.628Z,100409.13
2022-09-03T15:15:23.287Z,100418.75
2022-09-03T15:18:11.124Z,100414.13
2022-09-03T15:20:52.455Z,100412.47
2022-09-03T15:23:52.000Z,100410.94
2022-09-03T15:26:33.000Z,100405.16
2022-09-03T15:29:26.499Z,100403.44
2022-09-03T15:32:13.914Z,100395.13
2022-09-03T15:34:53.792Z,100396.78
2022-09-03T15:37:33.224Z,100397.00
2022-09-03T15:40:16.535Z,100394.00
2022-09-03T15:42:47.030Z,100377.59
2022-09-03T15:45:38.593Z,100392.38
2022-09-03T15:48:28.999Z,100390.84
2022-09-03T15:51:10.129Z,100396.53
2022-09-03T15:53:46.397Z,100393.56
2022-09-03T15:56:38.854Z,100397.22
2022-09-03T15:59:41.331Z,100407.50
2022-09-03T16:02:16.630Z,100404.84
2022-09-03T16:04:53.634Z,100408.53
2022-09-03T16:07:39.804Z,100401.56
2022-09-03T16:10:31.007Z,100417.47
2022-09-03T16:12:59.375Z,100413.22
2022-09-03T16:15:30.830Z,100416.88
2022-09-03T16:18:02.623Z,100421.84
2022-09-03T16:20:39.156Z,100417.53
2022-09-03T16:23:16.161Z,100418.72
2022-09-03T16:25:51.936Z,100423.19
2022-09-03T16:28:42.955Z,100406.94
2022-09-03T16:31:22.786Z,100423.53
2022-09-03T16:34:27.779Z,100422.19
2022-09-03T16:37:22.297Z,100425.50
2022-09-03T16:40:01.029Z,100424.69
2022-09-03T16:42:38.752Z,100424.16
2022-09-03T16:45:29.957Z,100428.78
2022-09-03T16:48:10.148Z,100430.66
2022-09-03T16:51:16.132Z,100435.75
2022-09-03T16:54:09.043Z,100438.38
2022-09-03T16:56:51.502Z,100435.75
2022-09-03T16:59:51.700Z,100434.75
2022-09-03T17:02:41.485Z,100437.91
2022-09-03T17:05:15.498Z,100439.75
2022-09-03T17:08:16.476Z,100439.75
2022-09-03T17:10:50.136Z,100445.72
2022-09-03T17:13:23.726Z,100444.88
2022-09-03T17:16:02.645Z,100437.09
2022-09-03T17:18:38.572Z,100437.41
2022-09-03T17:21:30.498Z,100431.13
2022-09-03T17:24:13.935Z,100433.59
2022-09-03T17:26:56.973Z,100437.72
2022-09-03T17:29:37.391Z,100427.78
2022-09-03T17:32:34.767Z,100436.91
2022-09-03T17:35:26.178Z,100436.09
2022-09-03T17:38:00.589Z,100425.31
2022-09-03T17:40:34.543Z,100431.44
2022-09-03T17:43:21.096Z,100434.44
2022-09-03T17:46:09.192Z,100430.72
2022-09-03T17:49:22.770Z,100449.50
2022-09-03T17:52:08.587Z,100434.22
2022-09-03T17:54:44.885Z,100450.16
2022-09-03T17:57:31.537Z,100454.53
2022-09-03T18:00:23.110Z,100444.00
2022-09-03T18:02:59.515Z,100446.00
2022-09-03T18:05:30.502Z,100443.69
2022-09-03T18:08:21.712Z,100440.72
2022-09-03T18:11:22.998Z,100446.00
2022-09-03T18:14:22.635Z,100450.91
2022-09-03T18:17:03.977Z,100443.41
2022-09-03T18:20:04.713Z,100441.25
2022-09-03T18:23:21.271Z,100440.44
2022-09-03T18:26:15.835Z,100431.00
2022-09-03T18:29:09.179Z,100427.75
2022-09-03T18:31:54.907Z,100436.41
2022-09-03T18:34:54.324Z,100433.25
2022-09-03T18:37:46.233Z,100439.72
2022-09-03T18:40:41.394Z,100424.81
2022-09-03T18:43:38.923Z,100438.41
2022-09-03T18:47:54.462Z,100437.72
2022-09-03T18:49:53.214Z,100441.00
2022-09-03T18:52:51.100Z,100442.47
2022-09-03T18:56:15.079Z,100417.13
2022-09-03T18:59:32.206Z,100433.34
2022-09-03T19:02:26.344Z,100425.25
2022-09-03T19:05:38.339Z,100426.38
2022-09-03T19:08:46.176Z,100426.03
2022-09-03T19:11:46.280Z,100433.44
2022-09-03T19:14:47.368Z,100415.38
2022-09-03T19:17:45.376Z,100418.06
2022-09-03T19:20:50.407Z,100409.47
2022-09-03T19:23:36.261Z,100402.81
2022-09-03T19:27:29.843Z,100405.44
2022-09-03T19:30:38.587Z,100392.19
2022-09-03T19:33:58.154Z,100402.47
2022-09-03T19:36:49.269Z,100402.75
2022-09-03T19:40:13.005Z,100397.47
2022-09-03T19:43:04.574Z,100411.38
2022-09-03T19:46:15.031Z,100401.78
2022-09-03T19:49:22.023Z,100375.91
2022-09-03T19:52:21.843Z,100398.31
2022-09-03T19:55:13.324Z,100394.16
2022-09-03T19:58:20.432Z,100394.66
2022-09-03T20:01:12.960Z,100397.78
2022-09-03T20:04:00.889Z,100388.16
2022-09-03T20:06:48.804Z,100405.53
2022-09-03T20:09:38.765Z,100408.50
2022-09-03T20:12:10.208Z,100406.03
2022-09-03T20:14:56.409Z,100401.03
2022-09-03T20:17:33.883Z,100405.22
2022-09-03T20:20:01.114Z,100410.38
2022-09-03T20:22:43.011Z,100404.56
2022-09-03T20:25:59.490Z,100405.69
2022-09-03T20:28:33.468Z,100407.34
2022-09-03T20:31:12.538Z,100408.72
2022-09-03T20:34:27.249Z,100414.34
2022-09-03T20:37:30.106Z,100406.41
2022-09-03T20:40:17.142Z,100411.56
2022-09-03T20:43:09.277Z,100412.09
2022-09-03T20:45:58.026Z,100407.78
2022-09-03T20:48:36.870Z,100408.75
2022-09-03T20:51:22.786Z,100408.09
2022-09-03T20:54:14.191Z,100405.63
2022-09-03T20:56:59.731Z,100401.97
2022-09-03T20:59:53.543Z,100407.63
2022-09-03T21:02:32.168Z,100389.25
2022-09-03T21:05:28.260Z,100405.31
2022-09-03T21:08:13.975Z,100400.31
2022-09-03T21:10:48.242Z,100411.41
2022-09-03T21:13:38.632Z,100388.84
2022-09-03T21:16:26.873Z,100409.41
2022-09-03T21:18:59.433Z,100402.75
2022-09-03T21:21:40.485Z,100405.06
2022-09-03T21:24:21.014Z,100405.34
2022-09-03T21:27:00.523Z,100413.78
2022-09-03T21:29:33.016Z,100402.03
2022-09-03T21:32:10.303Z,100409.31
2022-09-03T21:34:50.784Z,100401.72
2022-09-03T21:37:18.847Z,100414.31
2022-09-03T21:39:56.312Z,100411.31
2022-09-03T21:42:31.045Z,100412.94
2022-09-03T21:45:03.881Z,100410.94
2022-09-03T21:47:33.995Z,100415.25
2022-09-03T21:50:11.976Z,100423.47
2022-09-03T21:53:01.444Z,100405.84
2022-09-03T21:55:53.394Z,100410.94
2022-09-03T21:58:26.602Z,100423.28
2022-09-03T22:00:59.837Z,100422.84
2022-09-03T22:03:26.978Z,100415.31
2022-09-03T22:06:03.274Z,100418.94
2022-09-03T22:08:45.397Z,100424.94
2022-09-03T22:11:33.249Z,100425.59
2022-09-03T22:14:11.410Z,100423.63
2022-09-03T22:17:10.863Z,100419.31
2022-09-03T22:19:38.993Z,100404.56
2022-09-03T22:22:40.865Z,100435.22
2022-09-03T22:25:17.491Z,100425.63
2022-09-03T22:27:44.536Z,100433.97
2022-09-03T22:30:21.626Z,100425.63
2022-09-03T22:33:05.593Z,100432.34
2022-09-03T22:35:58.165Z,100437.25
2022-09-03T22:38:30.731Z,100441.50
2022-09-03T22:41:30.452Z,100439.06
2022-09-03T22:44:28.965Z,100416.69
2022-09-03T22:47:26.903Z,100436.91
2022-09-03T22:50:14.281Z,100442.81
2022-09-03T22:52:54.478Z,100416.91
2022-09-03T22:55:25.538Z,100445.59
2022-09-03T22:58:24.974Z,100438.84
2022-09-03T23:01:23.922Z,100444.22
2022-09-03T23:04:01.478Z,100430.88
2022-09-03T23:06:39.472Z,100431.47
2022-09-03T23:09:14.254Z,100429.81
2022-09-03T23:11:46.681Z,100409.53
2022-09-03T23:14:31.838Z,100431.63
2022-09-03T23:17:11.248Z,100430.59
2022-09-03T23:19:44.430Z,100409.00
2022-09-03T23:22:32.685Z,100429.22
2022-09-03T23:25:19.647Z,100402.34
2022-09-03T23:27:49.431Z,100422.88
2022-09-03T23:30:16.853Z,100427.84
2022-09-03T23:32:44.029Z,100402.34
2022-09-03T23:35:17.858Z,100407.19
2022-09-03T23:38:00.998Z,100431.72
2022-09-03T23:40:40.516Z,100433.88
2022-09-03T23:43:16.473Z,100435.88
2022-09-03T23:46:15.806Z,100442.28
2022-09-03T23:48:42.971Z,100446.03
2022-09-03T23:51:42.129Z,100448.88
2022-09-03T23:54:37.755Z,100443.50
2022-09-03T23:57:44.827Z,100447.13
